Terminal Aerodrome Forecast
Issued by NWS

Home | Current Version | Previous Version | Text Only | Print | Product List | Glossary On
Versions: 1 2 3 4 5 6 7 8 9 10 11 12
607
FTUS42 KGSP 221131
TAFAND
TAF
KAND 221131Z 2212/2312 03008KT P6SM SCT050
     FM221600 05006KT P6SM FEW250
     FM222000 18003KT P6SM SKC
     FM230000 00000KT P6SM SKC=

USA.gov is the U.S. government's official web portal to all federal, state and local government web resources and services.